createdAt,value
2022-08-01T00:01:18.258Z,3.22
2022-08-01T00:03:47.905Z,3.38
2022-08-01T00:06:16.132Z,3.70
2022-08-01T00:08:44.449Z,3.73
2022-08-01T00:11:12.953Z,3.58
2022-08-01T00:13:41.209Z,3.10
2022-08-01T00:16:09.648Z,3.38
2022-08-01T00:18:38.140Z,3.22
2022-08-01T00:21:07.941Z,3.40
2022-08-01T00:23:36.212Z,3.75
2022-08-01T00:26:04.901Z,3.10
2022-08-01T00:28:33.152Z,3.00
2022-08-01T00:31:01.538Z,3.92
2022-08-01T00:33:29.796Z,3.43
2022-08-01T00:35:58.067Z,3.05
2022-08-01T00:38:27.983Z,3.05
2022-08-01T00:40:56.231Z,3.22
2022-08-01T00:43:24.531Z,3.60
2022-08-01T00:45:52.870Z,3.73
2022-08-01T00:48:21.115Z,3.20
2022-08-01T00:50:49.687Z,3.38
2022-08-01T00:53:18.860Z,3.55
2022-08-01T00:55:49.931Z,3.40
2022-08-01T00:58:18.274Z,3.60
2022-08-01T01:00:52.574Z,3.40
2022-08-01T01:06:28.138Z,3.70
2022-08-01T01:09:09.625Z,3.42
2022-08-01T01:11:49.598Z,3.50
2022-08-01T01:14:29.698Z,3.25
2022-08-01T01:17:00.432Z,3.38
2022-08-01T01:19:32.999Z,3.97
2022-08-01T01:22:22.284Z,3.55
2022-08-01T01:25:04.830Z,3.80
2022-08-01T01:27:44.884Z,3.80
2022-08-01T01:30:15.144Z,3.63
2022-08-01T01:32:47.720Z,3.38
2022-08-01T01:35:19.864Z,3.50
2022-08-01T01:37:51.119Z,3.70
2022-08-01T01:40:22.136Z,3.35
2022-08-01T01:42:52.624Z,3.58
2022-08-01T01:45:23.670Z,3.42
2022-08-01T01:47:52.757Z,3.70
2022-08-01T01:50:23.143Z,3.47
2022-08-01T01:52:52.132Z,3.30
2022-08-01T01:55:24.143Z,3.45
2022-08-01T01:57:53.531Z,3.55
2022-08-01T02:00:24.138Z,3.33
2022-08-01T02:02:53.637Z,3.60
2022-08-01T02:05:23.338Z,3.50
2022-08-01T02:07:53.519Z,3.10
2022-08-01T02:10:29.164Z,3.40
2022-08-01T02:12:59.525Z,3.50
2022-08-01T02:15:31.851Z,3.70
2022-08-01T02:18:01.657Z,3.50
2022-08-01T02:20:32.522Z,3.50
2022-08-01T02:23:08.932Z,3.40
2022-08-01T02:26:09.514Z,3.70
2022-08-01T02:28:36.687Z,3.30
2022-08-01T02:31:11.313Z,3.70
2022-08-01T02:33:41.936Z,3.83
2022-08-01T02:36:29.772Z,3.65
2022-08-01T02:39:01.273Z,3.65
2022-08-01T02:41:30.995Z,4.07
2022-08-01T02:44:03.169Z,3.58
2022-08-01T02:46:38.371Z,3.55
2022-08-01T02:49:09.970Z,3.40
2022-08-01T02:51:39.372Z,3.42
2022-08-01T02:54:10.240Z,3.40
2022-08-01T02:56:39.106Z,3.70
2022-08-01T02:59:10.357Z,3.38
2022-08-01T03:01:41.970Z,3.88
2022-08-01T03:04:11.234Z,3.40
2022-08-01T03:06:40.420Z,3.90
2022-08-01T03:09:13.912Z,3.67
2022-08-01T03:11:47.282Z,3.67
2022-08-01T03:14:16.628Z,3.40
2022-08-01T03:16:48.421Z,4.20
2022-08-01T03:19:20.321Z,4.00
2022-08-01T03:21:50.481Z,3.25
2022-08-01T03:24:20.163Z,4.43
2022-08-01T03:26:49.697Z,4.40
2022-08-01T03:29:23.440Z,3.80
2022-08-01T03:31:53.961Z,3.50
2022-08-01T03:34:22.715Z,3.90
2022-08-01T03:36:55.689Z,3.67
2022-08-01T03:39:30.827Z,3.97
2022-08-01T03:42:05.060Z,3.67
2022-08-01T03:44:40.154Z,4.30
2022-08-01T03:47:11.435Z,3.58
2022-08-01T03:49:44.902Z,4.32
2022-08-01T03:52:14.289Z,3.30
2022-08-01T03:54:49.408Z,3.50
2022-08-01T03:57:36.439Z,3.50
2022-08-01T04:00:09.964Z,3.53
2022-08-01T04:02:40.811Z,3.35
2022-08-01T04:05:10.177Z,3.40
2022-08-01T04:07:40.274Z,3.50
2022-08-01T04:10:09.396Z,3.80
2022-08-01T04:12:37.736Z,3.67
2022-08-01T04:15:07.547Z,3.58
2022-08-01T04:17:35.781Z,3.45
2022-08-01T04:20:06.086Z,3.72
2022-08-01T04:22:35.217Z,3.60
2022-08-01T04:25:11.599Z,3.63
2022-08-01T04:27:49.106Z,3.53
2022-08-01T04:30:22.139Z,3.40
2022-08-01T04:32:52.071Z,3.47
2022-08-01T04:36:02.740Z,3.60
2022-08-01T04:38:13.863Z,3.22
2022-08-01T04:40:43.225Z,3.45
2022-08-01T04:43:11.500Z,3.75
2022-08-01T04:45:41.042Z,3.33
2022-08-01T04:48:10.621Z,3.30
2022-08-01T04:50:43.034Z,3.92
2022-08-01T04:53:15.461Z,3.47
2022-08-01T04:55:43.763Z,3.40
2022-08-01T04:58:17.394Z,3.97
2022-08-01T05:00:46.673Z,3.60
2022-08-01T05:03:15.024Z,3.33
2022-08-01T05:05:44.700Z,3.40
2022-08-01T05:08:12.953Z,3.35
2022-08-01T05:10:41.240Z,3.50
2022-08-01T05:13:09.522Z,3.70
2022-08-01T05:15:38.781Z,3.30
2022-08-01T05:18:08.725Z,3.45
2022-08-01T05:20:38.098Z,3.35
2022-08-01T05:23:11.022Z,3.22
2022-08-01T05:25:57.477Z,3.30
2022-08-01T05:28:26.622Z,3.08
2022-08-01T05:30:56.086Z,3.03
2022-08-01T05:33:24.472Z,2.88
2022-08-01T05:35:52.886Z,3.15
2022-08-01T05:38:22.540Z,3.00
2022-08-01T05:40:50.826Z,3.05
2022-08-01T05:43:19.244Z,2.85
2022-08-01T05:45:48.221Z,2.70
2022-08-01T05:48:16.474Z,3.00
2022-08-01T05:50:44.871Z,3.10
2022-08-01T05:53:13.103Z,2.72
2022-08-01T05:55:42.800Z,2.85
2022-08-01T05:58:12.557Z,2.70
2022-08-01T06:00:41.196Z,2.85
2022-08-01T06:03:09.457Z,2.70
2022-08-01T06:05:37.694Z,2.75
2022-08-01T06:08:06.349Z,2.60
2022-08-01T06:10:34.655Z,2.80
2022-08-01T06:13:04.323Z,2.80
2022-08-01T06:15:32.644Z,2.57
2022-08-01T06:18:00.920Z,2.70
2022-08-01T06:20:29.240Z,2.67
2022-08-01T06:22:57.474Z,2.40
2022-08-01T06:25:28.203Z,2.42
2022-08-01T06:27:56.600Z,2.60
2022-08-01T06:30:26.243Z,2.80
2022-08-01T06:32:56.993Z,2.60
2022-08-01T06:35:25.258Z,2.47
2022-08-01T06:37:53.543Z,2.35
2022-08-01T06:40:21.859Z,2.40
2022-08-01T06:42:50.074Z,2.20
2022-08-01T06:45:18.540Z,2.40
2022-08-01T06:47:49.708Z,2.60
2022-08-01T06:50:19.413Z,2.10
2022-08-01T06:52:47.669Z,2.27
2022-08-01T06:55:16.045Z,2.10
2022-08-01T06:57:51.665Z,1.90
2022-08-01T07:00:23.411Z,1.90
2022-08-01T07:02:53.774Z,1.83
2022-08-01T07:05:22.434Z,1.97
2022-08-01T07:07:51.313Z,1.90
2022-08-01T07:10:19.715Z,1.83
2022-08-01T07:12:47.982Z,2.03
2022-08-01T07:15:16.691Z,1.70
2022-08-01T07:17:45.249Z,1.73
2022-08-01T07:20:16.426Z,2.28
2022-08-01T07:22:47.514Z,1.70
2022-08-01T07:25:16.857Z,1.73
2022-08-01T07:27:45.695Z,1.70
2022-08-01T07:30:14.989Z,1.87
2022-08-01T07:32:43.296Z,1.90
2022-08-01T07:35:11.938Z,1.40
2022-08-01T07:37:42.517Z,1.80
2022-08-01T07:40:18.814Z,2.00
2022-08-01T07:42:47.462Z,1.73
2022-08-01T07:45:16.345Z,1.58
2022-08-01T07:47:44.921Z,1.40
2022-08-01T07:50:14.680Z,1.58
2022-08-01T07:52:44.664Z,1.65
2022-08-01T07:55:16.308Z,1.60
2022-08-01T07:57:45.260Z,1.67
2022-08-01T08:00:14.902Z,1.60
2022-08-01T08:02:43.322Z,1.40
2022-08-01T08:05:12.784Z,1.60
2022-08-01T08:07:41.145Z,1.90
2022-08-01T08:10:11.744Z,1.40
2022-08-01T08:12:40.102Z,1.40
2022-08-01T08:15:09.156Z,1.70
2022-08-01T08:17:37.426Z,1.50
2022-08-01T08:20:09.390Z,2.07
2022-08-01T08:22:38.881Z,1.40
2022-08-01T08:25:08.493Z,1.35
2022-08-01T08:27:38.680Z,1.40
2022-08-01T08:30:09.709Z,1.40
2022-08-01T08:32:38.434Z,1.30
2022-08-01T08:35:07.918Z,1.30
2022-08-01T08:37:39.146Z,1.10
2022-08-01T08:40:12.496Z,1.20
2022-08-01T08:42:43.540Z,1.30
2022-08-01T08:45:12.780Z,0.90
2022-08-01T08:47:43.854Z,1.10
2022-08-01T08:50:12.476Z,1.00
2022-08-01T08:52:42.212Z,1.00
2022-08-01T08:55:11.970Z,0.93
2022-08-01T08:57:44.330Z,0.90
2022-08-01T09:00:13.883Z,0.93
2022-08-01T09:02:44.591Z,1.20
2022-08-01T09:05:18.931Z,1.10
2022-08-01T09:07:47.769Z,0.90
2022-08-01T09:10:16.132Z,1.00
2022-08-01T09:13:12.038Z,1.02
2022-08-01T09:15:45.520Z,1.00
2022-08-01T09:18:31.529Z,1.10
2022-08-01T09:21:16.023Z,1.10
2022-08-01T09:23:53.843Z,0.97
2022-08-01T09:26:30.015Z,0.90
2022-08-01T09:29:01.883Z,0.80
2022-08-01T09:31:38.242Z,1.00
2022-08-01T09:34:09.111Z,1.02
2022-08-01T09:36:52.161Z,0.80
2022-08-01T09:39:23.984Z,1.10
2022-08-01T09:41:52.594Z,1.05
2022-08-01T09:44:42.177Z,0.93
2022-08-01T09:47:15.401Z,0.90
2022-08-01T09:49:50.496Z,1.00
2022-08-01T09:52:25.974Z,1.10
2022-08-01T09:54:59.499Z,1.20
2022-08-01T09:57:28.948Z,1.00
2022-08-01T10:00:01.302Z,0.90
2022-08-01T10:02:34.021Z,1.13
2022-08-01T10:05:08.357Z,1.10
2022-08-01T10:07:43.575Z,0.90
2022-08-01T10:10:14.417Z,1.10
2022-08-01T10:12:45.310Z,1.20
2022-08-01T10:15:18.407Z,1.00
2022-08-01T10:17:57.398Z,1.02
2022-08-01T10:20:30.202Z,1.20
2022-08-01T10:23:06.053Z,0.90
2022-08-01T10:25:46.609Z,0.85
2022-08-01T10:28:21.394Z,1.10
2022-08-01T10:30:54.509Z,1.10
2022-08-01T10:33:51.417Z,1.30
2022-08-01T10:36:13.980Z,1.10
2022-08-01T10:38:42.494Z,1.10
2022-08-01T10:41:16.096Z,1.17
2022-08-01T10:43:46.989Z,0.93
2022-08-01T10:46:17.676Z,1.20
2022-08-01T10:48:53.490Z,1.20
2022-08-01T10:51:51.125Z,1.42
2022-08-01T10:54:13.172Z,1.10
2022-08-01T10:56:44.834Z,1.02
2022-08-01T10:59:17.541Z,1.10
2022-08-01T11:02:08.154Z,0.80
2022-08-01T11:04:46.294Z,0.98
2022-08-01T11:07:20.438Z,1.00
2022-08-01T11:10:14.695Z,1.00
2022-08-01T11:12:44.429Z,1.05
2022-08-01T11:15:29.162Z,1.25
2022-08-01T11:18:02.169Z,1.25
2022-08-01T11:20:32.523Z,1.10
2022-08-01T11:23:36.289Z,1.33
2022-08-01T11:26:28.862Z,1.20
2022-08-01T11:29:21.555Z,1.00
2022-08-01T11:31:51.217Z,0.77
2022-08-01T11:34:21.036Z,1.00
2022-08-01T11:39:25.553Z,1.10
2022-08-01T11:41:55.583Z,1.00
2022-08-01T11:44:30.111Z,0.90
2022-08-01T11:47:09.326Z,0.90
2022-08-01T11:49:58.940Z,1.00
2022-08-01T11:52:29.543Z,1.00
2022-08-01T11:54:59.565Z,1.10
2022-08-01T11:57:33.941Z,1.15
2022-08-01T12:00:08.749Z,1.07
2022-08-01T12:02:37.518Z,1.20
2022-08-01T12:05:11.896Z,0.90
2022-08-01T12:07:42.375Z,0.90
2022-08-01T12:10:12.785Z,0.98
2022-08-01T12:12:46.151Z,0.73
2022-08-01T12:15:15.206Z,0.85
2022-08-01T12:17:56.464Z,0.90
2022-08-01T12:20:31.706Z,1.15
2022-08-01T12:23:01.693Z,1.05
2022-08-01T12:25:30.351Z,0.80
2022-08-01T12:28:02.532Z,1.00
2022-08-01T12:30:36.039Z,0.95
2022-08-01T12:33:05.422Z,1.00
2022-08-01T12:35:37.404Z,1.00
2022-08-01T12:38:07.957Z,1.27
2022-08-01T12:40:39.906Z,1.23
2022-08-01T12:43:27.086Z,1.05
2022-08-01T12:45:57.926Z,1.00
2022-08-01T12:48:26.993Z,1.27
2022-08-01T12:50:59.153Z,1.13
2022-08-01T12:53:41.269Z,0.90
2022-08-01T12:56:12.111Z,1.00
2022-08-01T12:58:41.243Z,0.95
2022-08-01T13:01:11.166Z,0.95
2022-08-01T13:03:39.951Z,0.97
2022-08-01T13:06:16.189Z,0.98
2022-08-01T13:08:45.387Z,0.88
2022-08-01T13:11:16.710Z,0.77
2022-08-01T13:13:48.333Z,0.98
2022-08-01T13:16:31.259Z,1.10
2022-08-01T13:19:07.628Z,0.90
2022-08-01T13:21:52.532Z,1.17
2022-08-01T13:24:28.481Z,1.00
2022-08-01T13:27:00.555Z,0.98
2022-08-01T13:29:34.199Z,1.00
2022-08-01T13:32:13.663Z,1.05
2022-08-01T13:35:04.362Z,1.00
2022-08-01T13:37:34.031Z,1.10
2022-08-01T13:40:02.230Z,1.10
2022-08-01T13:42:31.516Z,1.00
2022-08-01T13:45:00.443Z,1.00
2022-08-01T13:47:31.695Z,1.00
2022-08-01T13:50:01.946Z,0.90
2022-08-01T13:52:30.872Z,0.90
2022-08-01T13:55:00.890Z,1.00
2022-08-01T13:57:36.394Z,0.90
2022-08-01T14:00:07.035Z,1.05
2022-08-01T14:02:35.359Z,1.00
2022-08-01T14:05:03.894Z,0.98
2022-08-01T14:07:32.041Z,0.90
2022-08-01T14:10:18.514Z,1.10
2022-08-01T14:12:48.354Z,1.10
2022-08-01T14:15:18.135Z,1.05
2022-08-01T14:18:05.654Z,1.20
2022-08-01T14:20:34.361Z,1.00
2022-08-01T14:23:02.574Z,0.82
2022-08-01T14:26:02.947Z,1.00
2022-08-01T14:28:20.492Z,0.98
2022-08-01T14:30:48.830Z,1.10
2022-08-01T14:33:17.034Z,1.00
2022-08-01T14:36:01.952Z,0.90
2022-08-01T14:38:34.380Z,1.20
2022-08-01T14:41:04.833Z,0.90
2022-08-01T14:43:34.191Z,1.00
2022-08-01T14:46:04.642Z,0.90
2022-08-01T14:48:33.095Z,0.90
2022-08-01T14:51:03.850Z,1.30
2022-08-01T14:53:35.642Z,1.00
2022-08-01T14:56:06.037Z,1.25
2022-08-01T14:58:34.412Z,1.00
2022-08-01T15:01:03.359Z,0.93
2022-08-01T15:03:32.749Z,1.33
2022-08-01T15:06:01.442Z,1.10
2022-08-01T15:08:30.956Z,1.15
2022-08-01T15:10:59.116Z,1.07
2022-08-01T15:13:28.874Z,1.00
2022-08-01T15:15:59.983Z,0.90
2022-08-01T15:18:28.887Z,1.00
2022-08-01T15:20:58.276Z,0.93
2022-08-01T15:23:26.531Z,0.90
2022-08-01T15:25:55.035Z,1.00
2022-08-01T15:28:23.385Z,1.30
2022-08-01T15:30:53.063Z,1.10
2022-08-01T15:33:22.766Z,1.10
2022-08-01T15:35:53.027Z,1.33
2022-08-01T15:38:22.816Z,1.08
2022-08-01T15:40:52.745Z,1.00
2022-08-01T15:43:20.939Z,1.00
2022-08-01T15:45:49.601Z,1.00
2022-08-01T15:48:19.445Z,1.10
2022-08-01T15:50:47.660Z,1.10
2022-08-01T15:53:16.016Z,1.00
2022-08-01T15:55:52.018Z,1.20
2022-08-01T15:58:20.895Z,1.17
2022-08-01T16:00:49.139Z,1.20
2022-08-01T16:03:18.721Z,1.30
2022-08-01T16:05:47.011Z,1.00
2022-08-01T16:08:15.539Z,1.10
2022-08-01T16:10:44.333Z,1.10
2022-08-01T16:13:13.370Z,1.20
2022-08-01T16:15:41.964Z,1.33
2022-08-01T16:18:13.127Z,1.17
2022-08-01T16:20:45.410Z,1.02
2022-08-01T16:23:15.141Z,1.00
2022-08-01T16:25:44.649Z,1.53
2022-08-01T16:28:14.244Z,1.00
2022-08-01T16:31:01.365Z,0.90
2022-08-01T16:33:49.642Z,1.23
2022-08-01T16:36:23.328Z,0.80
2022-08-01T16:38:53.237Z,1.20
2022-08-01T16:41:21.629Z,1.20
2022-08-01T16:43:53.713Z,1.00
2022-08-01T16:46:24.937Z,1.10
2022-08-01T16:48:53.625Z,1.10
2022-08-01T16:51:23.405Z,1.00
2022-08-01T16:53:51.637Z,1.10
2022-08-01T16:56:20.268Z,1.40
2022-08-01T16:58:48.462Z,1.30
2022-08-01T17:01:58.571Z,1.42
2022-08-01T17:04:06.755Z,1.60
2022-08-01T17:06:36.339Z,1.50
2022-08-01T17:09:04.923Z,1.33
2022-08-01T17:11:33.422Z,1.40
2022-08-01T17:14:01.634Z,1.33
2022-08-01T17:16:29.836Z,1.20
2022-08-01T17:18:58.065Z,1.20
2022-08-01T17:21:26.254Z,1.20
2022-08-01T17:23:55.992Z,1.30
2022-08-01T17:26:24.301Z,1.38
2022-08-01T17:28:52.590Z,1.20
2022-08-01T17:31:20.817Z,1.40
2022-08-01T17:33:54.367Z,1.20
2022-08-01T17:36:23.425Z,1.25
2022-08-01T17:38:51.717Z,1.33
2022-08-01T17:41:21.357Z,1.40
2022-08-01T17:43:49.550Z,1.17
2022-08-01T17:46:17.971Z,1.33
2022-08-01T17:48:46.849Z,1.30
2022-08-01T17:51:19.399Z,1.33
2022-08-01T17:53:57.640Z,1.60
2022-08-01T17:56:28.246Z,1.60
2022-08-01T17:58:56.749Z,1.60
2022-08-01T18:01:26.897Z,1.63
2022-08-01T18:03:55.863Z,1.30
2022-08-01T18:06:26.999Z,1.83
2022-08-01T18:08:56.090Z,1.40
2022-08-01T18:11:27.439Z,1.60
2022-08-01T18:13:59.526Z,1.63
2022-08-01T18:16:28.536Z,1.70
2022-08-01T18:18:57.692Z,2.00
2022-08-01T18:21:25.898Z,1.95
2022-08-01T18:23:54.266Z,1.77
2022-08-01T18:26:22.997Z,1.90
2022-08-01T18:28:51.607Z,1.70
2022-08-01T18:31:21.280Z,2.10
2022-08-01T18:33:49.812Z,2.13
2022-08-01T18:36:32.869Z,1.88
2022-08-01T18:39:05.551Z,2.30
2022-08-01T18:41:34.851Z,1.83
2022-08-01T18:44:05.823Z,2.10
2022-08-01T18:46:39.533Z,1.98
2022-08-01T18:49:11.915Z,2.08
2022-08-01T18:51:44.748Z,2.25
2022-08-01T18:54:13.441Z,2.30
2022-08-01T18:56:42.282Z,1.90
2022-08-01T18:59:10.474Z,2.30
2022-08-01T19:01:40.695Z,1.80
2022-08-01T19:04:09.016Z,2.30
2022-08-01T19:06:37.746Z,2.38
2022-08-01T19:09:06.467Z,1.93
2022-08-01T19:11:35.368Z,2.38
2022-08-01T19:14:04.198Z,2.20
2022-08-01T19:16:33.213Z,2.10
2022-08-01T19:19:05.793Z,2.08
2022-08-01T19:21:35.475Z,2.10
2022-08-01T19:24:23.680Z,2.03
2022-08-01T19:26:56.252Z,2.00
2022-08-01T19:29:33.001Z,2.20
2022-08-01T19:32:06.819Z,2.25
2022-08-01T19:34:44.248Z,2.10
2022-08-01T19:37:13.640Z,1.90
2022-08-01T19:39:46.068Z,2.15
2022-08-01T19:42:14.807Z,1.95
2022-08-01T19:44:43.860Z,2.10
2022-08-01T19:47:14.064Z,2.10
2022-08-01T19:49:43.728Z,2.30
2022-08-01T19:52:13.678Z,2.15
2022-08-01T19:54:44.988Z,2.13
2022-08-01T19:57:15.302Z,2.35
2022-08-01T19:59:46.636Z,2.40
2022-08-01T20:02:18.632Z,1.95
2022-08-01T20:04:48.587Z,2.13
2022-08-01T20:07:17.163Z,2.33
2022-08-01T20:09:48.479Z,1.85
2022-08-01T20:12:16.821Z,2.30
2022-08-01T20:14:48.925Z,2.40
2022-08-01T20:17:17.168Z,2.15
2022-08-01T20:19:45.394Z,2.33
2022-08-01T20:22:15.582Z,2.13
2022-08-01T20:24:46.105Z,2.43
2022-08-01T20:27:15.724Z,2.30
2022-08-01T20:29:46.189Z,2.28
2022-08-01T20:32:15.429Z,2.30
2022-08-01T20:34:44.907Z,2.22
2022-08-01T20:37:14.978Z,2.60
2022-08-01T20:39:45.388Z,2.10
2022-08-01T20:42:14.574Z,2.20
2022-08-01T20:44:45.298Z,2.20
2022-08-01T20:47:15.421Z,2.28
2022-08-01T20:49:45.693Z,2.30
2022-08-01T20:52:16.808Z,2.30
2022-08-01T20:54:45.134Z,2.17
2022-08-01T20:57:20.461Z,2.35
2022-08-01T20:59:56.707Z,2.35
2022-08-01T21:02:42.625Z,2.37
2022-08-01T21:05:12.760Z,2.30
2022-08-01T21:07:50.067Z,2.45
2022-08-01T21:10:20.404Z,2.45
2022-08-01T21:12:51.169Z,2.10
2022-08-01T21:15:27.173Z,2.60
2022-08-01T21:18:02.468Z,2.38
2022-08-01T21:20:33.670Z,2.30
2022-08-01T21:23:22.991Z,2.42
2022-08-01T21:25:51.952Z,2.50
2022-08-01T21:28:21.104Z,2.63
2022-08-01T21:30:55.431Z,2.70
2022-08-01T21:33:25.408Z,2.30
2022-08-01T21:35:56.669Z,2.38
2022-08-01T21:38:27.856Z,2.33
2022-08-01T21:40:57.473Z,2.67
2022-08-01T21:43:25.690Z,2.53
2022-08-01T21:45:57.314Z,2.67
2022-08-01T21:48:30.139Z,2.55
2022-08-01T21:51:01.260Z,2.45
2022-08-01T21:53:43.394Z,2.33
2022-08-01T21:56:27.929Z,2.25
2022-08-01T21:59:01.671Z,2.35
2022-08-01T22:01:51.264Z,2.30
2022-08-01T22:04:24.684Z,2.65
2022-08-01T22:06:54.376Z,2.40
2022-08-01T22:09:24.422Z,2.40
2022-08-01T22:12:01.032Z,2.00
2022-08-01T22:14:31.155Z,2.47
2022-08-01T22:17:00.200Z,2.13
2022-08-01T22:19:45.666Z,2.40
2022-08-01T22:22:44.078Z,2.67
2022-08-01T22:25:06.284Z,2.30
2022-08-01T22:28:05.844Z,2.15
2022-08-01T22:30:23.653Z,2.55
2022-08-01T22:33:08.089Z,2.27
2022-08-01T22:35:46.724Z,2.38
2022-08-01T22:38:15.100Z,2.63
2022-08-01T22:40:50.051Z,2.50
2022-08-01T22:43:26.493Z,2.75
2022-08-01T22:46:16.613Z,2.60
2022-08-01T22:48:50.189Z,2.80
2022-08-01T22:51:43.345Z,2.72
2022-08-01T22:54:28.115Z,2.28
2022-08-01T22:57:02.207Z,2.53
2022-08-01T22:59:43.489Z,2.60
2022-08-01T23:02:16.166Z,2.10
2022-08-01T23:04:48.552Z,2.10
2022-08-01T23:07:21.918Z,2.60
2022-08-01T23:09:54.296Z,2.60
2022-08-01T23:12:26.943Z,2.47
2022-08-01T23:14:57.304Z,2.90
2022-08-01T23:17:29.247Z,2.55
2022-08-01T23:20:01.971Z,2.65
2022-08-01T23:22:32.385Z,2.50
2022-08-01T23:25:03.872Z,2.33
2022-08-01T23:27:55.995Z,2.90
2022-08-01T23:30:26.773Z,2.40
2022-08-01T23:32:55.565Z,2.28
2022-08-01T23:35:24.381Z,2.38
2022-08-01T23:37:53.377Z,2.47
2022-08-01T23:40:25.057Z,2.58
2022-08-01T23:42:55.872Z,2.42
2022-08-01T23:45:24.540Z,2.78
2022-08-01T23:47:52.855Z,2.20
2022-08-01T23:50:22.374Z,2.60
2022-08-01T23:52:51.563Z,2.60
2022-08-01T23:55:24.458Z,2.50
2022-08-01T23:58:06.090Z,2.35
